Time;durP1;ratioP1;P1;durP2;ratioP2;P2;SDS_P1;SDS_P2;PMS_P1;PMS_P2;Temp;Humidity;BMP_temperature;BMP_pressure;BME280_temperature;BME280_humidity;BME280_pressure;Samples;Min_cycle;Max_cycle;Signal;HPM_P1;HPM_P2
2022/07/28 00:00:06;;;;;;;4.55;3.55;;;15.80;99.90;;;;;;5072934;28;20432;-65
2022/07/28 00:02:34;;;;;;;4.53;3.53;;;15.80;99.90;;;;;;5073643;28;20123;-66
2022/07/28 00:05:01;;;;;;;4.53;3.17;;;15.80;99.90;;;;;;5062583;28;20048;-66
2022/07/28 00:07:28;;;;;;;;;;;15.80;99.90;;;;;;5054015;28;20045;-66
2022/07/28 00:09:55;;;;;;;5.43;3.47;;;15.80;99.90;;;;;;5053291;28;19920;-65
2022/07/28 00:12:26;;;;;;;5.55;3.20;;;15.70;99.90;;;;;;5053123;28;20379;-65
2022/07/28 00:14:53;;;;;;;5.00;2.92;;;15.70;99.90;;;;;;5053668;28;20041;-66
2022/07/28 00:17:20;;;;;;;5.05;3.10;;;15.60;99.90;;;;;;5053501;28;20056;-66
2022/07/28 00:19:46;;;;;;;4.45;3.35;;;15.50;99.90;;;;;;5052006;28;20481;-65
2022/07/28 00:22:13;;;;;;;5.05;3.30;;;15.20;99.90;;;;;;5052459;28;20048;-66
2022/07/28 00:24:40;;;;;;;5.53;3.42;;;15.40;99.90;;;;;;5053121;28;20068;-65
2022/07/28 00:27:08;;;;;;;6.45;3.00;;;15.30;99.90;;;;;;5053117;28;20048;-65
2022/07/28 00:29:35;;;;;;;5.97;3.50;;;15.40;99.90;;;;;;5052439;28;20565;-65
2022/07/28 00:32:16;;;;;;;3.95;3.47;;;15.40;99.90;;;;;;5046160;28;20041;-65
2022/07/28 00:34:43;;;;;;;4.22;3.40;;;15.20;99.90;;;;;;5051805;28;20095;-65
2022/07/28 00:37:10;;;;;;;4.25;3.10;;;15.20;99.90;;;;;;5052273;28;20045;-65
2022/07/28 00:39:40;;;;;;;3.80;3.20;;;15.10;99.90;;;;;;5049418;28;20041;-65
2022/07/28 00:42:08;;;;;;;5.57;3.55;;;15.10;99.90;;;;;;5032658;28;20041;-65
2022/07/28 00:44:35;;;;;;;4.18;3.05;;;15.10;99.90;;;;;;5032915;28;20069;-65
2022/07/28 00:47:02;;;;;;;8.65;3.33;;;15.10;99.90;;;;;;5040088;28;20513;-65
2022/07/28 00:49:28;;;;;;;4.40;3.22;;;15.10;99.90;;;;;;5052757;28;20548;-65
2022/07/28 00:51:56;;;;;;;4.85;3.53;;;15.20;99.90;;;;;;5052260;28;20037;-65
2022/07/28 00:54:22;;;;;;;4.63;3.35;;;15.20;99.90;;;;;;5052763;28;20041;-65
2022/07/28 00:56:49;;;;;;;4.45;3.55;;;15.10;99.90;;;;;;5051867;28;20044;-65
2022/07/28 00:59:16;;;;;;;4.93;3.55;;;15.10;99.90;;;;;;5052506;28;20041;-65
2022/07/28 01:01:43;;;;;;;5.30;3.85;;;14.90;99.90;;;;;;5052221;28;20048;-65
2022/07/28 01:04:10;;;;;;;5.63;3.70;;;14.80;99.90;;;;;;5052617;28;20048;-65
2022/07/28 01:06:37;;;;;;;;;;;14.70;99.90;;;;;;5052213;28;20037;-65
2022/07/28 01:09:29;;;;;;;4.43;3.63;;;14.60;99.90;;;;;;5052353;28;19943;-65
2022/07/28 01:12:02;;;;;;;5.05;3.55;;;14.60;99.90;;;;;;5052073;28;20049;-65
2022/07/28 01:14:59;;;;;;;4.85;3.70;;;14.60;99.90;;;;;;5051820;28;20052;-65
2022/07/28 01:17:55;;;;;;;4.25;3.28;;;14.60;99.90;;;;;;5026552;28;20044;-65
2022/07/28 01:20:29;;;;;;;6.82;3.97;;;14.60;99.90;;;;;;5052029;28;20048;-65
2022/07/28 01:23:03;;;;;;;5.78;4.05;;;14.70;99.90;;;;;;5052367;28;20086;-65
2022/07/28 01:25:39;;;;;;;4.10;3.22;;;14.70;99.90;;;;;;5051800;28;20040;-65
2022/07/28 01:28:31;;;;;;;8.90;3.85;;;14.70;99.90;;;;;;5032124;28;20046;-65
2022/07/28 01:31:03;;;;;;;3.80;3.35;;;14.70;99.90;;;;;;5031797;28;20054;-64
2022/07/28 01:33:40;;;;;;;6.57;3.25;;;14.80;99.90;;;;;;5051642;28;20037;-65
2022/07/28 01:36:28;;;;;;;4.28;3.03;;;14.80;99.90;;;;;;5031945;28;20045;-65
2022/07/28 01:38:55;;;;;;;6.15;3.58;;;14.80;99.90;;;;;;5032179;28;20068;-65
2022/07/28 01:41:26;;;;;;;4.57;3.65;;;14.80;99.90;;;;;;5035884;28;20051;-65
2022/07/28 01:44:00;;;;;;;5.55;2.97;;;14.90;99.90;;;;;;5051928;28;20047;-65
2022/07/28 01:46:27;;;;;;;5.28;3.58;;;14.90;99.90;;;;;;5051693;28;20053;-65
2022/07/28 01:48:56;;;;;;;5.00;3.78;;;14.90;99.90;;;;;;5050558;28;20063;-65
2022/07/28 01:51:27;;;;;;;5.00;3.53;;;14.90;99.90;;;;;;5050695;28;20032;-65
2022/07/28 01:53:58;;;;;;;4.78;3.30;;;14.90;99.90;;;;;;5051605;28;20076;-65
2022/07/28 01:56:27;;;;;;;6.57;3.50;;;14.90;99.90;;;;;;5051692;28;20060;-65
2022/07/28 01:58:56;;;;;;;5.40;3.60;;;14.80;99.90;;;;;;5050513;28;20041;-65
2022/07/28 02:01:25;;;;;;;8.07;3.58;;;14.80;99.90;;;;;;5051107;28;20045;-65
2022/07/28 02:03:54;;;;;;;4.13;3.30;;;14.80;99.90;;;;;;5051496;28;20045;-65
2022/07/28 02:06:22;;;;;;;4.05;3.65;;;14.80;99.90;;;;;;5050877;28;20059;-65
2022/07/28 02:08:51;;;;;;;5.10;3.90;;;14.80;99.90;;;;;;5051299;28;20045;-65
2022/07/28 02:14:17;;;;;;;4.65;3.80;;;14.60;99.90;;;;;;5051366;28;20048;-65
2022/07/28 02:16:48;;;;;;;7.85;2.97;;;14.50;99.90;;;;;;5050762;28;20048;-65
2022/07/28 02:19:17;;;;;;;6.35;3.33;;;14.50;99.90;;;;;;5051211;28;20517;-65
2022/07/28 02:21:48;;;;;;;4.32;3.80;;;14.50;99.90;;;;;;5051016;28;20045;-65
2022/07/28 02:24:19;;;;;;;7.68;3.75;;;14.50;99.90;;;;;;5050677;28;20051;-65
2022/07/28 02:26:52;;;;;;;7.95;3.40;;;14.50;99.90;;;;;;5051072;28;20048;-65
2022/07/28 02:29:23;;;;;;;5.95;3.55;;;14.50;99.90;;;;;;5051217;28;20540;-65
2022/07/28 02:32:30;;;;;;;4.75;3.88;;;14.50;99.90;;;;;;5050413;28;20041;-65
2022/07/28 02:35:11;;;;;;;5.15;3.90;;;14.50;99.90;;;;;;5051013;28;20044;-65
2022/07/28 02:37:43;;;;;;;4.88;4.20;;;14.60;99.90;;;;;;5051430;28;20049;-65
2022/07/28 02:40:14;;;;;;;4.63;3.53;;;14.60;99.90;;;;;;5049960;28;20494;-65
2022/07/28 02:42:44;;;;;;;6.38;4.18;;;14.60;99.90;;;;;;5051083;28;20448;-65
2022/07/28 02:45:15;;;;;;;4.75;4.32;;;14.70;99.90;;;;;;5050960;28;20513;-65
2022/07/28 02:47:56;;;;;;;6.63;4.45;;;14.60;99.90;;;;;;5051252;28;20409;-65
2022/07/28 02:50:26;;;;;;;5.20;3.83;;;14.60;99.90;;;;;;5050051;28;20041;-65
2022/07/28 02:52:58;;;;;;;13.63;3.45;;;14.60;99.90;;;;;;5050858;28;20048;-65
2022/07/28 02:55:26;;;;;;;5.20;3.85;;;14.50;99.90;;;;;;5050893;28;20048;-65
2022/07/28 02:57:53;;;;;;;7.97;3.90;;;14.50;99.90;;;;;;5049055;28;20060;-65
2022/07/28 03:00:23;;;;;;;5.43;3.75;;;14.40;99.90;;;;;;5050392;28;20050;-65
2022/07/28 03:02:53;;;;;;;5.85;3.78;;;14.40;99.90;;;;;;5051060;28;20037;-65
2022/07/28 03:05:20;;;;;;;7.57;4.03;;;14.40;99.90;;;;;;5050765;28;20045;-65
2022/07/28 03:07:51;;;;;;;5.60;3.60;;;14.30;99.90;;;;;;5059211;28;20075;-65
2022/07/28 03:10:20;;;;;;;4.65;3.33;;;14.30;99.90;;;;;;5065507;28;20482;-65
2022/07/28 03:13:01;;;;;;;5.88;3.45;;;14.30;99.90;;;;;;5071632;28;20931;-65
2022/07/28 03:15:28;;;;;;;6.22;4.13;;;14.30;99.90;;;;;;5055401;28;20048;-65
2022/07/28 03:17:55;;;;;;;5.38;4.15;;;14.30;99.90;;;;;;5072814;28;20162;-65
2022/07/28 03:20:21;;;;;;;11.50;3.80;;;14.20;99.90;;;;;;5074019;28;20044;-65
2022/07/28 03:22:48;;;;;;;7.32;4.10;;;14.20;99.90;;;;;;5069873;28;20044;-65
2022/07/28 03:25:22;;;;;;;4.18;3.60;;;14.10;99.90;;;;;;5054246;28;20111;-65
2022/07/28 03:27:51;;;;;;;4.93;4.10;;;14.20;99.90;;;;;;5054467;28;20516;-65
2022/07/28 03:30:23;;;;;;;5.82;4.32;;;14.20;99.90;;;;;;5053544;28;20448;-65
2022/07/28 03:32:57;;;;;;;7.00;4.28;;;14.20;99.90;;;;;;5051958;28;20053;-65
2022/07/28 03:35:24;;;;;;;9.00;4.05;;;14.20;99.90;;;;;;5054171;28;20045;-65
2022/07/28 03:37:58;;;;;;;5.97;4.03;;;14.20;99.90;;;;;;5054346;28;20045;-65
2022/07/28 03:40:28;;;;;;;6.65;4.28;;;14.20;99.90;;;;;;5053335;28;20398;-65
2022/07/28 03:42:56;;;;;;;5.60;3.55;;;14.20;99.90;;;;;;5053959;28;20116;-65
2022/07/28 03:45:24;;;;;;;5.25;4.10;;;14.20;99.90;;;;;;5053594;28;20052;-65
2022/07/28 03:47:52;;;;;;;;;;;14.20;99.90;;;;;;5053966;28;20044;-65
2022/07/28 03:50:23;;;;;;;6.63;4.28;;;14.20;99.90;;;;;;5053588;28;19921;-65
2022/07/28 03:52:50;;;;;;;6.43;4.10;;;14.20;99.90;;;;;;5053836;28;20048;-65
2022/07/28 03:55:18;;;;;;;5.78;4.47;;;14.20;99.90;;;;;;5053882;28;20041;-65
2022/07/28 03:57:44;;;;;;;;;;;14.10;99.90;;;;;;5053628;28;20445;-65
2022/07/28 04:00:13;;;;;;;9.32;4.00;;;14.10;99.90;;;;;;5053365;28;19921;-65
2022/07/28 04:02:42;;;;;;;5.07;4.05;;;14.20;99.90;;;;;;5053799;28;20049;-65
2022/07/28 04:05:14;;;;;;;8.02;4.13;;;14.10;99.90;;;;;;5053044;28;20041;-65
2022/07/28 04:07:41;;;;;;;8.88;4.03;;;14.10;99.90;;;;;;5053468;28;20516;-65
2022/07/28 04:10:10;;;;;;;;;;;14.00;99.90;;;;;;5053610;28;20048;-65
2022/07/28 04:12:48;;;;;;;6.95;4.20;;;14.00;99.90;;;;;;5053411;28;19947;-65
2022/07/28 04:15:15;;;;;;;4.20;3.80;;;14.00;99.90;;;;;;5052494;28;20048;-65
2022/07/28 04:17:43;;;;;;;;;;;14.10;99.90;;;;;;5068162;28;20056;-65
2022/07/28 04:20:10;;;;;;;8.63;4.65;;;14.20;99.90;;;;;;5047501;28;19925;-66
2022/07/28 04:22:37;;;;;;;8.05;4.47;;;14.20;99.90;;;;;;5037089;28;20418;-66
2022/07/28 04:25:05;;;;;;;5.70;4.40;;;14.20;99.90;;;;;;5069332;28;20489;-66
2022/07/28 04:27:34;;;;;;;7.05;4.20;;;14.20;99.90;;;;;;5057608;28;20049;-66
2022/07/28 04:30:04;;;;;;;9.27;4.68;;;14.20;99.90;;;;;;5052934;28;20033;-66
2022/07/28 04:32:31;;;;;;;7.28;4.20;;;14.20;99.90;;;;;;5052224;28;20049;-66
2022/07/28 04:34:57;;;;;;;4.85;4.30;;;14.10;99.90;;;;;;5070221;28;20082;-65
2022/07/28 04:37:24;;;;;;;9.88;5.05;;;14.20;99.90;;;;;;5083556;22;20045;-62
2022/07/28 04:39:58;;;;;;;5.47;4.13;;;14.30;99.90;;;;;;5070344;28;20231;-61
2022/07/28 04:42:24;;;;;;;5.13;4.03;;;14.30;99.90;;;;;;5072900;28;20045;-62
2022/07/28 04:44:51;;;;;;;5.00;3.83;;;14.30;99.90;;;;;;5072989;28;20040;-62
2022/07/28 04:47:18;;;;;;;7.28;3.95;;;14.30;99.90;;;;;;5066878;28;20036;-62
2022/07/28 04:49:45;;;;;;;5.03;4.25;;;14.40;99.90;;;;;;5072751;28;20059;-62
2022/07/28 04:52:12;;;;;;;5.15;4.25;;;14.40;99.90;;;;;;5072490;28;20546;-62
2022/07/28 04:54:38;;;;;;;8.30;4.43;;;14.50;99.90;;;;;;5068791;28;20048;-62
2022/07/28 04:57:05;;;;;;;4.75;4.13;;;14.50;99.90;;;;;;5064206;28;20053;-62
2022/07/28 04:59:35;;;;;;;7.85;5.30;;;14.50;99.90;;;;;;5072431;28;20054;-62
2022/07/28 05:02:03;;;;;;;6.55;5.43;;;14.60;99.90;;;;;;5072339;28;20070;-62
2022/07/28 05:04:30;;;;;;;;;;;14.70;99.90;;;;;;5065512;28;20497;-62
2022/07/28 05:06:57;;;;;;;8.13;6.30;;;14.80;99.90;;;;;;5072223;28;20279;-62
2022/07/28 05:09:25;;;;;;;9.80;6.00;;;14.90;99.90;;;;;;5072191;28;20044;-62
2022/07/28 05:11:51;;;;;;;8.70;5.75;;;15.00;99.90;;;;;;5071743;28;20044;-62
2022/07/28 05:14:18;;;;;;;8.05;5.88;;;15.10;99.90;;;;;;5066652;28;20036;-62
2022/07/28 05:16:45;;;;;;;8.15;5.85;;;15.20;99.90;;;;;;5071425;28;20040;-62
2022/07/28 05:19:12;;;;;;;9.38;5.32;;;15.20;99.90;;;;;;5071486;28;20044;-62
2022/07/28 05:21:39;;;;;;;11.93;5.50;;;15.20;99.90;;;;;;5065572;28;20044;-63
2022/07/28 05:24:06;;;;;;;8.90;5.47;;;15.30;99.90;;;;;;5062952;28;20393;-62
2022/07/28 05:26:33;;;;;;;9.60;6.05;;;15.30;99.90;;;;;;5071198;28;20052;-62
2022/07/28 05:29:00;;;;;;;10.38;6.10;;;15.40;99.90;;;;;;5071375;28;20045;-62
2022/07/28 05:31:27;;;;;;;9.65;5.78;;;15.40;99.90;;;;;;5065211;28;20032;-62
2022/07/28 05:33:53;;;;;;;9.70;6.78;;;15.40;99.90;;;;;;5071255;28;20044;-62
2022/07/28 05:36:21;;;;;;;9.02;5.95;;;15.40;99.90;;;;;;5071667;28;20481;-62
2022/07/28 05:38:48;;;;;;;9.10;5.70;;;15.30;99.90;;;;;;5072013;28;20044;-62
2022/07/28 05:41:15;;;;;;;12.55;5.97;;;15.40;99.90;;;;;;5064126;28;20041;-62
2022/07/28 05:43:41;;;;;;;11.80;5.95;;;15.50;99.90;;;;;;5071614;28;20048;-62
2022/07/28 05:46:08;;;;;;;14.23;6.13;;;15.50;99.90;;;;;;5071592;28;20500;-62
2022/07/28 05:48:35;;;;;;;9.02;6.28;;;15.60;99.90;;;;;;5069068;28;20060;-62
2022/07/28 05:51:04;;;;;;;8.38;6.55;;;15.70;99.90;;;;;;5071006;28;20037;-62
2022/07/28 05:53:31;;;;;;;9.88;6.85;;;15.80;99.90;;;;;;5071697;28;20504;-62
2022/07/28 05:55:58;;;;;;;12.75;6.70;;;15.80;99.90;;;;;;5071609;28;20037;-63
2022/07/28 05:58:28;;;;;;;11.73;6.68;;;15.90;99.90;;;;;;5066868;28;20033;-62
2022/07/28 06:00:58;;;;;;;8.88;6.38;;;15.90;99.90;;;;;;5071110;28;20033;-62
2022/07/28 06:03:25;;;;;;;11.30;6.10;;;16.00;99.90;;;;;;5071672;28;20558;-62
2022/07/28 06:05:55;;;;;;;7.43;6.03;;;16.20;99.90;;;;;;5064683;28;20422;-62
2022/07/28 06:08:41;;;;;;;;;;;16.30;99.90;;;;;;5071988;28;20032;-62
2022/07/28 06:11:10;;;;;;;8.38;5.75;;;16.30;99.90;;;;;;5070994;28;19927;-62
2022/07/28 06:13:48;;;;;;;10.00;5.78;;;16.30;99.90;;;;;;5071407;28;20036;-62
2022/07/28 06:16:15;;;;;;;9.77;6.40;;;16.40;99.90;;;;;;5070060;28;20424;-62
2022/07/28 06:18:42;;;;;;;8.35;5.78;;;16.40;99.90;;;;;;5071377;28;20068;-62
2022/07/28 06:21:09;;;;;;;11.48;6.10;;;16.40;99.90;;;;;;5070917;28;20491;-62
2022/07/28 06:23:36;;;;;;;8.98;5.80;;;16.50;99.90;;;;;;5069904;28;20048;-62
2022/07/28 06:26:03;;;;;;;8.70;5.40;;;16.60;99.90;;;;;;5066621;28;20102;-62
2022/07/28 06:28:31;;;;;;;9.88;5.65;;;16.80;99.90;;;;;;5069976;28;20074;-62
2022/07/28 06:30:58;;;;;;;7.32;5.65;;;16.90;99.90;;;;;;5071058;28;20049;-62
2022/07/28 06:33:25;;;;;;;7.70;5.45;;;17.00;99.90;;;;;;5062519;28;20036;-62
2022/07/28 06:35:52;;;;;;;5.57;4.85;;;17.20;99.90;;;;;;5069751;28;20040;-61
2022/07/28 06:38:21;;;;;;;9.40;5.45;;;17.40;99.90;;;;;;5071098;28;20081;-63
2022/07/28 06:40:48;;;;;;;9.95;4.82;;;17.50;99.90;;;;;;5070610;28;20048;-62
2022/07/28 06:43:15;;;;;;;9.30;4.60;;;17.60;99.90;;;;;;5069682;28;20539;-62
2022/07/28 06:45:43;;;;;;;5.88;4.30;;;17.70;99.90;;;;;;5074766;28;20063;-62
2022/07/28 06:48:12;;;;;;;6.97;4.07;;;17.70;99.90;;;;;;5075035;28;20044;-62
2022/07/28 06:50:40;;;;;;;7.25;4.47;;;17.90;99.90;;;;;;5074614;28;20053;-62
2022/07/28 06:53:07;;;;;;;7.40;4.38;;;18.00;99.90;;;;;;5067158;28;20033;-62
2022/07/28 06:55:34;;;;;;;7.15;4.53;;;18.10;99.90;;;;;;5074926;28;20110;-61
2022/07/28 06:58:03;;;;;;;7.88;4.22;;;18.30;99.90;;;;;;5075007;28;20041;-62
2022/07/28 07:00:30;;;;;;;6.90;4.32;;;18.30;99.90;;;;;;5073018;28;20044;-62
2022/07/28 07:02:57;;;;;;;8.15;4.38;;;18.40;99.90;;;;;;5073257;28;20820;-62
2022/07/28 07:05:28;;;;;;;9.05;4.57;;;18.50;99.90;;;;;;5075190;28;20041;-62
2022/07/28 07:07:55;;;;;;;8.32;4.68;;;18.70;99.90;;;;;;5074296;28;20040;-62
2022/07/28 07:10:22;;;;;;;8.20;4.88;;;18.80;99.90;;;;;;5066838;28;20028;-62
2022/07/28 07:12:49;;;;;;;5.78;4.38;;;18.90;99.90;;;;;;5074479;28;20527;-62
2022/07/28 07:15:15;;;;;;;7.43;4.57;;;19.10;99.90;;;;;;5073198;28;20045;-62
2022/07/28 07:17:42;;;;;;;6.90;4.80;;;19.30;99.90;;;;;;5071369;28;20048;-63
2022/07/28 07:20:12;;;;;;;8.45;4.13;;;19.50;99.90;;;;;;5073994;28;20044;-63
2022/07/28 07:22:42;;;;;;;8.10;4.53;;;19.60;99.90;;;;;;5074162;28;20060;-62
2022/07/28 07:25:11;;;;;;;6.40;4.20;;;19.70;99.90;;;;;;5074358;28;20055;-62
2022/07/28 07:27:38;;;;;;;5.10;4.22;;;19.80;99.90;;;;;;5068070;28;20044;-62
2022/07/28 07:30:06;;;;;;;10.88;4.65;;;19.80;99.90;;;;;;5073397;28;20036;-62
2022/07/28 07:32:33;;;;;;;6.03;4.35;;;19.90;99.90;;;;;;5074323;28;20401;-63
2022/07/28 07:35:00;;;;;;;7.40;4.65;;;20.00;99.90;;;;;;5072894;28;20036;-62
2022/07/28 07:37:27;;;;;;;5.32;4.40;;;20.10;99.90;;;;;;5073386;28;20526;-62
2022/07/28 07:39:54;;;;;;;6.80;4.50;;;20.30;99.90;;;;;;5073327;28;20048;-63
2022/07/28 07:42:20;;;;;;;6.05;4.28;;;20.40;99.90;;;;;;5074124;28;20041;-63
2022/07/28 07:44:50;;;;;;;5.72;4.30;;;20.50;99.90;;;;;;5073936;28;20390;-62
2022/07/28 07:47:17;;;;;;;5.68;4.78;;;20.50;99.90;;;;;;5069155;28;20045;-63
2022/07/28 07:49:44;;;;;;;;;;;20.60;99.90;;;;;;5074124;28;20064;-62
2022/07/28 07:52:13;;;;;;;7.40;4.07;;;20.60;99.90;;;;;;5073555;28;19920;-62
2022/07/28 07:54:40;;;;;;;6.88;4.22;;;20.80;99.90;;;;;;5074166;28;20716;-62
2022/07/28 07:57:08;;;;;;;9.93;5.15;;;21.00;99.90;;;;;;5066498;28;20083;-62
2022/07/28 07:59:35;;;;;;;5.10;3.67;;;21.10;99.90;;;;;;5073565;28;20492;-63
2022/07/28 08:02:03;;;;;;;8.38;4.40;;;21.20;99.90;;;;;;5073302;28;20048;-62
2022/07/28 08:04:30;;;;;;;6.82;3.90;;;21.20;99.90;;;;;;5068267;28;20036;-62
2022/07/28 08:07:02;;;;;;;7.63;3.90;;;21.40;99.90;;;;;;5073097;28;20044;-63
2022/07/28 08:09:29;;;;;;;5.38;3.85;;;21.50;99.90;;;;;;5073560;28;20055;-63
2022/07/28 08:11:56;;;;;;;5.25;3.45;;;21.60;99.90;;;;;;5073283;28;20393;-63
2022/07/28 08:14:23;;;;;;;4.35;3.30;;;21.60;99.90;;;;;;5070009;28;20142;-63
2022/07/28 08:16:49;;;;;;;4.80;3.70;;;21.80;99.90;;;;;;5073047;28;20063;-63
2022/07/28 08:19:16;;;;;;;4.20;3.58;;;21.90;99.90;;;;;;5072259;28;20059;-63
2022/07/28 08:21:47;;;;;;;6.28;3.60;;;22.10;99.90;;;;;;5073153;28;20435;-63
2022/07/28 08:24:14;;;;;;;3.50;3.20;;;22.10;99.90;;;;;;5071328;28;20054;-62
2022/07/28 08:27:00;;;;;;;7.22;3.40;;;22.20;99.90;;;;;;5072953;28;20040;-63
2022/07/28 08:29:27;;;;;;;6.78;3.65;;;22.20;99.90;;;;;;5073201;28;20045;-63
2022/07/28 08:31:54;;;;;;;7.82;3.22;;;22.10;99.90;;;;;;5072769;28;20503;-62
2022/07/28 08:34:21;;;;;;;5.95;3.92;;;22.20;99.90;;;;;;5071886;28;20039;-63
2022/07/28 08:37:00;;;;;;;4.57;3.10;;;22.30;99.90;;;;;;5073142;28;20420;-63
2022/07/28 08:39:27;;;;;;;7.10;4.38;;;22.50;99.90;;;;;;5072803;28;20040;-63
2022/07/28 08:42:13;;;;;;;4.60;3.55;;;22.60;99.90;;;;;;5071490;28;20059;-63
2022/07/28 08:44:59;;;;;;;6.22;3.15;;;22.60;99.90;;;;;;5069269;28;20049;-63
2022/07/28 08:47:30;;;;;;;8.93;3.70;;;22.70;99.90;;;;;;5052809;28;20079;-63
2022/07/28 08:50:15;;;;;;;5.88;3.50;;;22.80;99.90;;;;;;5052345;28;20137;-63
2022/07/28 08:52:44;;;;;;;6.15;3.47;;;23.00;99.90;;;;;;5053428;28;20064;-63
2022/07/28 08:55:12;;;;;;;7.45;3.67;;;23.00;99.90;;;;;;5072601;28;20086;-63
2022/07/28 08:57:45;;;;;;;7.13;3.58;;;23.00;99.90;;;;;;5072878;28;20412;-63
2022/07/28 09:00:12;;;;;;;5.82;3.97;;;23.00;99.90;;;;;;5072152;28;20036;-63
2022/07/28 09:02:44;;;;;;;;;;;23.00;99.90;;;;;;5064912;28;20049;-63
2022/07/28 09:05:11;;;;;;;7.15;4.07;;;23.00;99.90;;;;;;5065255;28;19952;-63
2022/07/28 09:07:40;;;;;;;6.90;3.53;;;23.10;99.90;;;;;;5071438;28;20041;-63
2022/07/28 09:10:08;;;;;;;3.55;3.22;;;23.10;99.90;;;;;;5068497;28;20036;-63
2022/07/28 09:12:35;;;;;;;6.28;4.05;;;23.30;99.90;;;;;;5072246;28;20036;-63
2022/07/28 09:15:02;;;;;;;;;;;23.20;99.90;;;;;;5072611;28;20044;-63
2022/07/28 09:17:31;;;;;;;6.05;3.70;;;23.20;99.90;;;;;;5071929;28;20723;-63
2022/07/28 09:19:58;;;;;;;5.82;3.80;;;23.20;99.90;;;;;;5064977;28;20393;-63
2022/07/28 09:22:25;;;;;;;5.65;3.47;;;23.30;99.90;;;;;;5071962;28;20047;-63
2022/07/28 09:24:52;;;;;;;7.47;4.15;;;23.40;99.90;;;;;;5072128;28;20052;-63
2022/07/28 09:27:19;;;;;;;7.93;3.90;;;23.50;99.90;;;;;;5069325;28;20045;-63
2022/07/28 09:29:56;;;;;;;5.05;3.70;;;23.40;99.90;;;;;;5069102;28;20055;-63
2022/07/28 09:32:24;;;;;;;4.57;3.78;;;23.40;99.90;;;;;;5072388;28;20047;-63
2022/07/28 09:34:51;;;;;;;4.40;3.92;;;23.30;99.90;;;;;;5071857;28;20365;-63
2022/07/28 09:37:24;;;;;;;6.25;3.80;;;23.40;99.90;;;;;;5067198;28;20106;-63
2022/07/28 09:39:57;;;;;;;7.65;4.00;;;23.40;99.90;;;;;;5071010;28;20055;-63
2022/07/28 09:42:25;;;;;;;4.50;3.55;;;23.50;99.90;;;;;;5071845;28;20083;-63
2022/07/28 09:45:06;;;;;;;6.13;3.95;;;23.40;99.90;;;;;;5066993;28;20037;-63
2022/07/28 09:48:10;;;;;;;6.95;3.83;;;23.60;99.90;;;;;;5071570;28;20048;-63
2022/07/28 09:50:41;;;;;;;6.43;4.03;;;23.70;99.90;;;;;;5071179;28;20048;-63
2022/07/28 09:53:26;;;;;;;6.45;3.97;;;23.90;99.90;;;;;;5070485;28;20110;-64
2022/07/28 09:55:59;;;;;;;7.40;4.38;;;23.90;99.90;;;;;;5069908;28;20045;-63
2022/07/28 09:58:29;;;;;;;7.05;4.85;;;23.90;99.90;;;;;;5071435;28;20056;-63
2022/07/28 10:01:14;;;;;;;6.22;4.15;;;24.00;99.90;;;;;;5071181;28;20040;-63
2022/07/28 10:03:47;;;;;;;6.97;4.10;;;24.00;99.90;;;;;;5066444;28;20494;-63
2022/07/28 10:06:15;;;;;;;8.35;4.30;;;24.00;99.90;;;;;;5071119;28;20040;-63
2022/07/28 10:08:50;;;;;;;6.60;4.10;;;24.10;99.90;;;;;;5071396;28;20417;-63
2022/07/28 10:11:19;;;;;;;6.13;4.20;;;24.00;99.90;;;;;;5070941;28;20512;-63
2022/07/28 10:13:56;;;;;;;6.03;4.45;;;23.90;99.90;;;;;;5064226;28;20409;-63
2022/07/28 10:16:31;;;;;;;8.02;5.43;;;24.10;99.90;;;;;;5070028;28;20048;-63
2022/07/28 10:19:01;;;;;;;8.10;5.38;;;24.20;99.90;;;;;;5070632;28;20037;-63
2022/07/28 10:21:32;;;;;;;6.78;4.85;;;24.20;99.90;;;;;;5065492;28;20028;-63
2022/07/28 10:24:03;;;;;;;8.00;4.60;;;24.30;99.90;;;;;;5071260;28;20044;-63
2022/07/28 10:26:32;;;;;;;7.32;4.43;;;24.30;99.90;;;;;;5071346;28;20048;-63
2022/07/28 10:29:03;;;;;;;7.78;5.25;;;24.50;99.90;;;;;;5069001;28;20053;-63
2022/07/28 10:31:37;;;;;;;5.22;4.72;;;24.40;99.90;;;;;;5065853;28;20044;-63
2022/07/28 10:34:08;;;;;;;7.38;5.60;;;24.50;99.90;;;;;;5071056;28;20044;-63
2022/07/28 10:36:43;;;;;;;6.63;4.70;;;24.60;99.90;;;;;;5086884;22;20068;-64
2022/07/28 10:39:17;;;;;;;6.53;5.10;;;24.50;99.90;;;;;;5063707;28;20051;-64
2022/07/28 10:41:45;;;;;;;6.25;4.88;;;24.50;99.90;;;;;;5066204;28;20540;-64
2022/07/28 10:44:17;;;;;;;7.47;4.97;;;24.40;99.90;;;;;;5062573;28;20041;-64
2022/07/28 10:46:45;;;;;;;8.15;4.78;;;24.50;99.90;;;;;;5072776;28;20072;-64
2022/07/28 10:49:13;;;;;;;8.68;4.53;;;24.50;99.90;;;;;;5083579;28;20040;-64
2022/07/28 10:51:45;;;;;;;8.35;4.75;;;24.70;99.90;;;;;;5090853;28;20044;-64
2022/07/28 10:55:02;;;;;;;5.70;4.90;;;24.80;99.90;;;;;;5078300;28;20044;-64
2022/07/28 10:57:30;;;;;;;7.25;4.43;;;24.90;99.90;;;;;;5047041;28;20048;-64
2022/07/28 11:00:15;;;;;;;5.20;4.70;;;25.00;99.90;;;;;;5090761;28;20051;-64
2022/07/28 11:03:00;;;;;;;8.60;5.07;;;25.00;99.90;;;;;;5083469;28;20131;-64
2022/07/28 11:05:41;;;;;;;6.30;5.00;;;25.00;99.90;;;;;;5082698;28;20051;-64
2022/07/28 11:08:15;;;;;;;6.25;5.32;;;24.90;99.90;;;;;;5091011;28;20059;-64
2022/07/28 11:10:47;;;;;;;6.13;5.05;;;24.90;99.90;;;;;;5084761;28;20052;-64
2022/07/28 11:13:26;;;;;;;5.72;4.82;;;24.70;99.90;;;;;;5082500;28;20389;-64
2022/07/28 11:15:56;;;;;;;8.00;5.38;;;24.80;99.90;;;;;;5090879;28;20044;-64
2022/07/28 11:18:23;;;;;;;7.07;5.30;;;24.80;99.90;;;;;;5090886;28;20044;-64
2022/07/28 11:20:56;;;;;;;6.88;5.43;;;25.00;99.90;;;;;;5074850;28;20040;-64
2022/07/28 11:23:46;;;;;;;10.10;5.50;;;25.00;99.90;;;;;;5085118;28;20044;-65
2022/07/28 11:26:22;;;;;;;7.20;5.28;;;25.10;99.90;;;;;;5090766;28;20128;-64
2022/07/28 11:29:07;;;;;;;9.23;5.85;;;25.10;99.90;;;;;;5089205;28;20044;-64
2022/07/28 11:31:43;;;;;;;7.25;5.93;;;25.00;99.90;;;;;;5083926;28;20043;-64
2022/07/28 11:34:15;;;;;;;7.25;5.93;;;25.10;99.90;;;;;;5094402;28;20044;-67
2022/07/28 11:37:03;;;;;;;6.40;5.60;;;25.10;99.90;;;;;;5094247;28;20035;-64
2022/07/28 11:39:37;;;;;;;5.97;5.13;;;25.10;99.90;;;;;;5082222;28;20044;-64
2022/07/28 11:42:29;;;;;;;11.02;5.20;;;25.10;99.90;;;;;;5053835;28;20041;-64
2022/07/28 11:45:17;;;;;;;9.18;6.45;;;25.30;99.90;;;;;;5054280;28;20041;-64
2022/07/28 11:47:44;;;;;;;9.10;6.57;;;25.20;99.90;;;;;;5079498;28;20059;-64
2022/07/28 11:50:14;;;;;;;;;;;25.20;99.90;;;;;;5094345;28;20097;-64
2022/07/28 11:52:55;;;;;;;9.43;6.45;;;25.30;99.90;;;;;;5094201;28;19920;-64
2022/07/28 11:55:22;;;;;;;11.38;6.30;;;25.30;99.90;;;;;;5080068;28;20047;-64
2022/07/28 11:58:23;;;;;;;7.55;6.10;;;25.30;99.90;;;;;;5078180;28;20101;-64
2022/07/28 12:01:26;;;;;;;7.38;5.93;;;25.30;99.90;;;;;;5093665;28;20032;-64
2022/07/28 12:03:58;;;;;;;8.90;6.05;;;25.30;99.90;;;;;;5084709;28;20049;-64
2022/07/28 12:06:34;;;;;;;8.73;6.40;;;25.40;99.90;;;;;;5085322;28;20065;-64
2022/07/28 12:09:06;;;;;;;8.38;6.35;;;25.40;99.90;;;;;;5094059;28;20404;-64
2022/07/28 12:11:36;;;;;;;8.90;5.85;;;25.40;99.90;;;;;;5093444;28;20055;-64
2022/07/28 12:14:05;;;;;;;16.08;6.78;;;25.40;99.90;;;;;;5073503;28;20036;-64
2022/07/28 12:16:35;;;;;;;10.73;5.75;;;25.40;99.90;;;;;;5088864;28;20497;-64
2022/07/28 12:19:03;;;;;;;9.18;6.40;;;25.40;99.90;;;;;;5093361;28;20051;-64
2022/07/28 12:21:46;;;;;;;9.10;5.93;;;25.40;99.90;;;;;;5077178;28;20043;-65
2022/07/28 12:24:27;;;;;;;11.02;6.22;;;25.50;99.90;;;;;;5079427;28;20515;-64
2022/07/28 12:26:56;;;;;;;9.82;6.47;;;25.60;99.90;;;;;;5092203;28;20400;-64
2022/07/28 12:29:28;;;;;;;7.35;6.13;;;25.80;99.90;;;;;;5085642;28;20040;-64
2022/07/28 12:32:07;;;;;;;12.68;6.03;;;25.80;99.90;;;;;;5084425;28;20059;-64
2022/07/28 12:34:36;;;;;;;9.48;5.72;;;25.90;99.90;;;;;;5093502;28;20059;-64
2022/07/28 12:37:05;;;;;;;8.23;5.95;;;25.90;99.90;;;;;;5093077;28;20059;-64
2022/07/28 12:39:35;;;;;;;7.72;6.15;;;25.90;99.90;;;;;;5079917;28;20040;-64
2022/07/28 12:42:07;;;;;;;9.13;5.82;;;26.00;99.90;;;;;;5084041;28;20558;-64
2022/07/28 12:44:42;;;;;;;8.60;5.50;;;26.10;99.90;;;;;;5093064;28;20048;-64
2022/07/28 12:47:10;;;;;;;8.52;6.20;;;26.10;99.90;;;;;;5084791;28;20493;-64
2022/07/28 12:49:39;;;;;;;11.00;5.40;;;26.20;99.90;;;;;;5077294;28;20044;-64
2022/07/28 12:52:16;;;;;;;7.68;5.75;;;26.10;99.90;;;;;;5052410;28;20383;-64
2022/07/28 12:54:43;;;;;;;6.13;5.30;;;26.20;99.90;;;;;;5052939;28;20412;-65
2022/07/28 12:57:46;;;;;;;9.95;6.10;;;26.20;99.90;;;;;;5064260;28;20047;-64
2022/07/28 13:00:20;;;;;;;9.15;5.60;;;26.20;99.90;;;;;;5079054;28;20077;-65
2022/07/28 13:02:48;;;;;;;6.25;5.50;;;26.30;99.90;;;;;;5092854;28;20097;-64
2022/07/28 13:08:22;;;;;;;11.95;5.63;;;26.30;99.90;;;;;;5080704;28;20040;-64
2022/07/28 13:10:50;;;;;;;7.10;5.25;;;26.30;99.90;;;;;;5091089;28;20043;-64
2022/07/28 13:13:22;;;;;;;7.68;5.03;;;26.40;99.90;;;;;;5092834;28;20127;-64
2022/07/28 13:16:12;;;;;;;6.35;4.90;;;26.40;99.90;;;;;;5082532;28;20051;-64